createdAt,value
2022-09-01T00:00:13.099Z,15.77
2022-09-01T00:01:08.097Z,15.81
2022-09-01T00:02:03.233Z,15.82
2022-09-01T00:02:58.330Z,15.83
2022-09-01T00:03:53.312Z,15.77
2022-09-01T00:04:48.464Z,15.78
2022-09-01T00:05:43.365Z,15.71
2022-09-01T00:06:38.427Z,15.60
2022-09-01T00:07:33.535Z,15.56
2022-09-01T00:08:28.593Z,15.58
2022-09-01T00:09:23.673Z,15.64
2022-09-01T00:10:18.799Z,15.67
2022-09-01T00:11:13.861Z,15.64
2022-09-01T00:12:08.984Z,15.67
2022-09-01T00:13:04.202Z,15.71
2022-09-01T00:13:59.350Z,15.75
2022-09-01T00:14:55.918Z,15.78
2022-09-01T00:15:51.019Z,15.78
2022-09-01T00:16:46.034Z,15.76
2022-09-01T00:17:41.160Z,15.75
2022-09-01T00:18:36.144Z,15.75
2022-09-01T00:19:31.253Z,15.72
2022-09-01T00:20:26.350Z,15.72
2022-09-01T00:21:21.351Z,15.73
2022-09-01T00:22:16.439Z,15.74
2022-09-01T00:23:11.571Z,15.73
2022-09-01T00:24:06.546Z,15.70
2022-09-01T00:25:01.705Z,15.68
2022-09-01T00:25:57.342Z,15.66
2022-09-01T00:26:52.548Z,15.65
2022-09-01T00:27:47.799Z,15.63
2022-09-01T00:28:43.595Z,15.64
2022-09-01T00:29:38.857Z,15.67
2022-09-01T00:30:34.775Z,15.69
2022-09-01T00:31:29.930Z,15.74
2022-09-01T00:32:25.340Z,15.83
2022-09-01T00:33:21.127Z,15.81
2022-09-01T00:34:16.487Z,15.73
2022-09-01T00:35:11.938Z,15.71
2022-09-01T00:36:08.559Z,15.72
2022-09-01T00:37:03.789Z,15.73
2022-09-01T00:37:59.614Z,15.71
2022-09-01T00:38:54.896Z,15.65
2022-09-01T00:39:50.257Z,15.62
2022-09-01T00:40:45.950Z,15.62
2022-09-01T00:41:41.170Z,15.70
2022-09-01T00:42:36.975Z,15.72
2022-09-01T00:43:32.185Z,15.73
2022-09-01T00:44:29.557Z,15.74
2022-09-01T00:45:23.256Z,15.66
2022-09-01T00:46:20.380Z,15.67
2022-09-01T00:47:13.776Z,15.73
2022-09-01T00:48:09.012Z,15.66
2022-09-01T00:49:04.957Z,15.63
2022-09-01T00:50:00.057Z,15.60
2022-09-01T00:50:55.450Z,15.61
2022-09-01T00:51:51.796Z,15.62
2022-09-01T00:52:47.020Z,15.62
2022-09-01T00:53:42.834Z,15.64
2022-09-01T00:54:38.045Z,15.64
2022-09-01T00:55:33.549Z,15.66
2022-09-01T00:56:29.260Z,15.70
2022-09-01T00:57:24.486Z,15.74
2022-09-01T00:58:20.334Z,15.74
2022-09-01T00:59:15.523Z,15.73
2022-09-01T01:00:10.904Z,15.71
2022-09-01T01:01:06.669Z,15.71
2022-09-01T01:02:01.903Z,15.79
2022-09-01T01:02:57.196Z,15.83
2022-09-01T01:03:53.445Z,15.79
2022-09-01T01:04:48.715Z,15.73
2022-09-01T01:05:44.509Z,15.70
2022-09-01T01:06:39.726Z,15.73
2022-09-01T01:07:34.976Z,15.71
2022-09-01T01:08:30.819Z,15.67
2022-09-01T01:09:26.072Z,15.62
2022-09-01T01:10:21.843Z,15.63
2022-09-01T01:11:17.055Z,15.65
2022-09-01T01:12:12.372Z,15.66
2022-09-01T01:13:07.589Z,15.59
2022-09-01T01:14:02.986Z,15.53
2022-09-01T01:14:58.663Z,15.52
2022-09-01T01:15:53.892Z,15.52
2022-09-01T01:16:49.791Z,15.46
2022-09-01T01:17:45.012Z,15.48
2022-09-01T01:18:40.552Z,15.49
2022-09-01T01:19:38.993Z,15.53
2022-09-01T01:20:31.543Z,15.53
2022-09-01T01:21:26.786Z,15.47
2022-09-01T01:22:23.095Z,15.46
2022-09-01T01:23:18.362Z,15.48
2022-09-01T01:24:14.160Z,15.54
2022-09-01T01:25:09.374Z,15.65
2022-09-01T01:26:04.629Z,15.73
2022-09-01T01:27:00.423Z,15.76
2022-09-01T01:27:55.680Z,15.78
2022-09-01T01:28:50.880Z,15.84
2022-09-01T01:29:46.195Z,15.89
2022-09-01T01:30:41.454Z,15.87
2022-09-01T01:31:36.550Z,15.85
2022-09-01T01:32:31.561Z,15.82
2022-09-01T01:33:26.669Z,15.85
2022-09-01T01:34:21.758Z,15.85
2022-09-01T01:35:16.888Z,15.79
2022-09-01T01:36:11.970Z,15.71
2022-09-01T01:37:07.076Z,15.67
2022-09-01T01:38:02.201Z,15.61
2022-09-01T01:38:57.309Z,15.57
2022-09-01T01:39:52.427Z,15.53
2022-09-01T01:40:47.597Z,15.45
2022-09-01T01:41:42.678Z,15.40
2022-09-01T01:42:37.777Z,15.42
2022-09-01T01:43:32.878Z,15.50
2022-09-01T01:44:28.023Z,15.50
2022-09-01T01:45:22.975Z,15.46
2022-09-01T01:46:18.158Z,15.46
2022-09-01T01:47:13.141Z,15.52
2022-09-01T01:48:08.226Z,15.54
2022-09-01T01:49:03.312Z,15.56
2022-09-01T01:49:58.413Z,15.54
2022-09-01T01:50:53.444Z,15.55
2022-09-01T01:51:48.540Z,15.54
2022-09-01T01:52:45.505Z,15.52
2022-09-01T01:53:43.852Z,15.51
2022-09-01T01:54:39.205Z,15.50
2022-09-01T01:55:34.401Z,15.49
2022-09-01T01:56:29.751Z,15.49
2022-09-01T01:57:25.011Z,15.46
2022-09-01T01:58:20.440Z,15.44
2022-09-01T01:59:15.461Z,15.46
2022-09-01T02:00:10.663Z,15.46
2022-09-01T02:01:06.011Z,15.46
2022-09-01T02:02:01.285Z,15.44
2022-09-01T02:02:56.717Z,15.43
2022-09-01T02:03:51.839Z,15.38
2022-09-01T02:04:47.060Z,15.28
2022-09-01T02:05:42.288Z,15.24
2022-09-01T02:06:37.502Z,15.24
2022-09-01T02:07:33.178Z,15.25
2022-09-01T02:08:28.828Z,15.24
2022-09-01T02:09:24.047Z,15.19
2022-09-01T02:10:19.304Z,15.19
2022-09-01T02:11:14.546Z,15.13
2022-09-01T02:12:09.747Z,15.14
2022-09-01T02:13:05.092Z,15.15
2022-09-01T02:14:00.456Z,15.13
2022-09-01T02:14:55.680Z,15.15
2022-09-01T02:15:50.928Z,15.17
2022-09-01T02:16:46.175Z,15.16
2022-09-01T02:17:41.463Z,15.13
2022-09-01T02:18:36.544Z,15.12
2022-09-01T02:19:31.783Z,15.09
2022-09-01T02:20:27.330Z,15.09
2022-09-01T02:21:22.284Z,15.14
2022-09-01T02:22:17.488Z,15.21
2022-09-01T02:23:12.720Z,15.23
2022-09-01T02:24:08.080Z,15.23
2022-09-01T02:25:03.283Z,15.26
2022-09-01T02:26:15.705Z,15.29
2022-09-01T02:26:54.775Z,15.18
2022-09-01T02:27:49.052Z,15.12
2022-09-01T02:28:44.382Z,15.09
2022-09-01T02:29:41.891Z,15.10
2022-09-01T02:30:34.941Z,15.10
2022-09-01T02:31:30.133Z,15.16
2022-09-01T02:32:25.511Z,15.14
2022-09-01T02:33:20.618Z,15.11
2022-09-01T02:34:15.826Z,15.10
2022-09-01T02:35:11.155Z,15.09
2022-09-01T02:36:06.083Z,15.09
2022-09-01T02:37:01.149Z,15.12
2022-09-01T02:37:56.238Z,15.18
2022-09-01T02:38:53.265Z,15.21
2022-09-01T02:39:46.399Z,15.24
2022-09-01T02:40:41.534Z,15.33
2022-09-01T02:41:36.519Z,15.47
2022-09-01T02:42:32.678Z,15.55
2022-09-01T02:43:27.790Z,15.63
2022-09-01T02:44:22.741Z,15.65
2022-09-01T02:45:17.836Z,15.56
2022-09-01T02:46:13.005Z,15.46
2022-09-01T02:47:07.996Z,15.43
2022-09-01T02:48:03.063Z,15.41
2022-09-01T02:48:58.185Z,15.39
2022-09-01T02:49:53.288Z,15.34
2022-09-01T02:50:48.387Z,15.31
2022-09-01T02:51:43.636Z,15.34
2022-09-01T02:52:38.859Z,15.38
2022-09-01T02:53:34.187Z,15.39
2022-09-01T02:54:29.596Z,15.40
2022-09-01T02:55:24.673Z,15.41
2022-09-01T02:56:20.166Z,15.39
2022-09-01T02:57:16.291Z,15.39
2022-09-01T02:58:10.541Z,15.40
2022-09-01T02:59:06.001Z,15.42
2022-09-01T03:00:01.201Z,15.38
2022-09-01T03:00:56.464Z,15.32
2022-09-01T03:01:51.703Z,15.31
2022-09-01T03:02:46.924Z,15.30
2022-09-01T03:03:42.129Z,15.30
2022-09-01T03:04:37.457Z,15.29
2022-09-01T03:05:32.691Z,15.32
2022-09-01T03:06:28.073Z,15.34
2022-09-01T03:07:23.157Z,15.37
2022-09-01T03:08:18.498Z,15.40
2022-09-01T03:09:13.851Z,15.42
2022-09-01T03:10:08.930Z,15.43
2022-09-01T03:11:04.125Z,15.47
2022-09-01T03:11:59.363Z,15.50
2022-09-01T03:12:54.718Z,15.51
2022-09-01T03:13:49.961Z,15.55
2022-09-01T03:14:45.198Z,15.59
2022-09-01T03:15:40.436Z,15.61
2022-09-01T03:16:35.726Z,15.64
2022-09-01T03:17:30.954Z,15.68
2022-09-01T03:18:26.168Z,15.72
2022-09-01T03:19:21.438Z,15.78
2022-09-01T03:20:16.643Z,15.82
2022-09-01T03:21:12.014Z,15.85
2022-09-01T03:22:07.107Z,15.90
2022-09-01T03:23:02.328Z,15.93
2022-09-01T03:23:57.764Z,16.00
2022-09-01T03:24:52.856Z,16.05
2022-09-01T03:25:48.216Z,16.05
2022-09-01T03:26:43.315Z,16.09
2022-09-01T03:27:38.551Z,16.13
2022-09-01T03:28:33.843Z,16.15
2022-09-01T03:29:29.084Z,16.16
2022-09-01T03:30:24.285Z,16.21
2022-09-01T03:31:19.580Z,16.27
2022-09-01T03:32:14.821Z,16.29
2022-09-01T03:33:10.071Z,16.26
2022-09-01T03:34:05.469Z,16.24
2022-09-01T03:35:00.530Z,16.21
2022-09-01T03:35:55.819Z,16.19
2022-09-01T03:36:51.046Z,16.19
2022-09-01T03:37:46.370Z,16.20
2022-09-01T03:38:41.598Z,16.23
2022-09-01T03:39:36.830Z,16.28
2022-09-01T03:40:31.976Z,16.28
2022-09-01T03:41:26.959Z,16.29
2022-09-01T03:42:21.949Z,16.28
2022-09-01T03:43:17.068Z,16.22
2022-09-01T03:44:12.131Z,16.23
2022-09-01T03:45:07.252Z,16.27
2022-09-01T03:46:02.475Z,16.25
2022-09-01T03:46:57.364Z,16.29
2022-09-01T03:47:52.447Z,16.30
2022-09-01T03:48:47.568Z,16.33
2022-09-01T03:49:42.664Z,16.34
2022-09-01T03:50:37.745Z,16.37
2022-09-01T03:51:32.847Z,16.38
2022-09-01T03:52:27.834Z,16.41
2022-09-01T03:53:22.894Z,16.44
2022-09-01T03:54:18.005Z,16.45
2022-09-01T03:55:13.069Z,16.46
2022-09-01T03:56:08.126Z,16.47
2022-09-01T03:57:03.263Z,16.49
2022-09-01T03:57:58.486Z,16.47
2022-09-01T03:58:53.917Z,16.47
2022-09-01T03:59:49.013Z,16.48
2022-09-01T04:00:44.947Z,16.50
2022-09-01T04:01:39.631Z,16.47
2022-09-01T04:02:34.810Z,16.46
2022-09-01T04:03:31.153Z,16.48
2022-09-01T04:04:25.223Z,16.48
2022-09-01T04:05:20.506Z,16.46
2022-09-01T04:06:15.799Z,16.44
2022-09-01T04:07:10.980Z,16.37
2022-09-01T04:08:07.194Z,16.30
2022-09-01T04:09:01.420Z,16.27
2022-09-01T04:09:56.710Z,16.27
2022-09-01T04:10:54.374Z,16.27
2022-09-01T04:11:47.241Z,16.25
2022-09-01T04:12:42.412Z,16.26
2022-09-01T04:13:38.842Z,16.29
2022-09-01T04:14:34.007Z,16.31
2022-09-01T04:15:29.290Z,16.34
2022-09-01T04:16:24.540Z,16.36
2022-09-01T04:17:19.667Z,16.36
2022-09-01T04:18:14.705Z,16.35
2022-09-01T04:19:09.741Z,16.37
2022-09-01T04:20:04.762Z,16.31
2022-09-01T04:20:59.941Z,16.25
2022-09-01T04:21:55.140Z,16.24
2022-09-01T04:22:50.206Z,16.24
2022-09-01T04:23:45.217Z,16.20
2022-09-01T04:24:43.260Z,16.15
2022-09-01T04:25:35.283Z,16.11
2022-09-01T04:26:30.466Z,16.09
2022-09-01T04:27:25.758Z,16.06
2022-09-01T04:28:21.301Z,16.05
2022-09-01T04:29:16.946Z,16.06
2022-09-01T04:30:12.245Z,16.07
2022-09-01T04:31:07.533Z,16.09
2022-09-01T04:32:04.167Z,16.04
2022-09-01T04:32:59.205Z,16.00
2022-09-01T04:33:55.023Z,15.97
2022-09-01T04:34:50.340Z,15.96
2022-09-01T04:35:45.633Z,15.93
2022-09-01T04:36:41.373Z,15.87
2022-09-01T04:37:36.642Z,15.85
2022-09-01T04:38:32.521Z,15.84
2022-09-01T04:39:27.738Z,15.85
2022-09-01T04:40:23.298Z,15.86
2022-09-01T04:41:19.083Z,15.83
2022-09-01T04:42:14.409Z,15.83
2022-09-01T04:43:09.905Z,15.82
2022-09-01T04:44:06.160Z,15.82
2022-09-01T04:45:02.472Z,15.84
2022-09-01T04:45:58.462Z,15.87
2022-09-01T04:46:52.858Z,15.92
2022-09-01T04:47:48.315Z,15.96
2022-09-01T04:48:44.053Z,16.00
2022-09-01T04:49:39.440Z,16.04
2022-09-01T04:50:35.399Z,16.11
2022-09-01T04:51:30.679Z,16.16
2022-09-01T04:52:26.078Z,16.19
2022-09-01T04:53:21.790Z,16.22
2022-09-01T04:54:18.169Z,16.27
2022-09-01T04:55:12.636Z,16.32
2022-09-01T04:56:07.777Z,16.37
2022-09-01T04:57:02.747Z,16.38
2022-09-01T04:57:57.745Z,16.35
2022-09-01T04:58:52.857Z,16.34
2022-09-01T04:59:47.845Z,16.31
2022-09-01T05:00:43.064Z,16.26
2022-09-01T05:01:38.054Z,16.25
2022-09-01T05:02:39.158Z,16.20
2022-09-01T05:03:34.520Z,16.18
2022-09-01T05:04:29.902Z,16.14
2022-09-01T05:05:25.930Z,16.08
2022-09-01T05:06:21.215Z,16.06
2022-09-01T05:07:16.795Z,16.05
2022-09-01T05:08:13.063Z,16.08
2022-09-01T05:09:08.511Z,16.13
2022-09-01T05:10:04.204Z,16.16
2022-09-01T05:10:59.617Z,16.17
2022-09-01T05:11:55.144Z,16.20
2022-09-01T05:12:50.713Z,16.27
2022-09-01T05:13:46.100Z,16.31
2022-09-01T05:14:41.912Z,16.28
2022-09-01T05:15:37.362Z,16.26
2022-09-01T05:16:32.803Z,16.25
2022-09-01T05:17:28.505Z,16.21
2022-09-01T05:18:23.955Z,16.22
2022-09-01T05:19:19.419Z,16.21
2022-09-01T05:20:15.697Z,16.20
2022-09-01T05:21:11.254Z,16.21
2022-09-01T05:22:06.946Z,16.26
2022-09-01T05:23:02.389Z,16.29
2022-09-01T05:23:57.847Z,16.32
2022-09-01T05:24:55.463Z,16.35
2022-09-01T05:25:49.022Z,16.38
2022-09-01T05:26:44.418Z,16.38
2022-09-01T05:27:39.789Z,16.37
2022-09-01T05:28:35.642Z,16.30
2022-09-01T05:29:31.215Z,16.32
2022-09-01T05:30:26.589Z,16.37
2022-09-01T05:31:22.504Z,16.52
2022-09-01T05:32:17.900Z,16.58
2022-09-01T05:33:13.841Z,16.70
2022-09-01T05:34:09.106Z,16.71
2022-09-01T05:35:04.536Z,16.73
2022-09-01T05:36:00.264Z,16.78
2022-09-01T05:36:55.718Z,16.83
2022-09-01T05:37:51.166Z,16.90
2022-09-01T05:38:47.456Z,16.92
2022-09-01T05:39:42.901Z,16.92
2022-09-01T05:40:38.853Z,16.91
2022-09-01T05:41:34.253Z,16.84
2022-09-01T05:42:29.675Z,16.88
2022-09-01T05:44:37.142Z,16.61
2022-09-01T05:45:50.118Z,16.89
2022-09-01T05:46:28.878Z,17.03
2022-09-01T05:47:23.383Z,17.06
2022-09-01T05:48:19.084Z,17.08
2022-09-01T05:49:14.418Z,17.06
2022-09-01T05:50:14.033Z,17.01
2022-09-01T05:51:05.368Z,16.94
2022-09-01T05:52:00.819Z,16.91
2022-09-01T05:52:56.424Z,16.87
2022-09-01T05:53:51.846Z,16.83
2022-09-01T05:54:47.291Z,16.79
2022-09-01T05:55:42.722Z,16.69
2022-09-01T05:56:42.651Z,16.57
2022-09-01T05:57:35.230Z,16.47
2022-09-01T05:59:22.471Z,16.42
2022-09-01T05:59:26.200Z,16.39
2022-09-01T06:00:20.108Z,16.38
2022-09-01T06:01:15.526Z,16.40
2022-09-01T06:02:11.178Z,16.44
2022-09-01T06:03:06.564Z,16.50
2022-09-01T06:04:01.866Z,16.47
2022-09-01T06:04:57.526Z,16.49
2022-09-01T06:05:52.763Z,16.50
2022-09-01T06:07:05.930Z,16.50
2022-09-01T06:07:44.739Z,16.53
2022-09-01T06:08:39.164Z,16.59
2022-09-01T06:09:34.562Z,16.66
2022-09-01T06:10:30.208Z,16.71
2022-09-01T06:11:25.626Z,16.81
2022-09-01T06:12:21.063Z,16.81
2022-09-01T06:13:16.652Z,16.77
2022-09-01T06:14:12.005Z,16.75
2022-09-01T06:15:07.630Z,16.71
2022-09-01T06:16:03.063Z,16.65
2022-09-01T06:16:58.544Z,16.57
2022-09-01T06:17:54.289Z,16.58
2022-09-01T06:18:49.737Z,16.62
2022-09-01T06:19:45.340Z,16.69
2022-09-01T06:20:40.799Z,16.82
2022-09-01T06:21:36.224Z,16.93
2022-09-01T06:22:31.639Z,16.99
2022-09-01T06:23:27.153Z,16.94
2022-09-01T06:24:22.730Z,16.89
2022-09-01T06:25:18.160Z,16.78
2022-09-01T06:26:13.623Z,16.74
2022-09-01T06:27:09.077Z,16.71
2022-09-01T06:28:04.508Z,16.71
2022-09-01T06:29:00.027Z,16.67
2022-09-01T06:29:55.444Z,16.61
2022-09-01T06:30:51.030Z,16.46
2022-09-01T06:31:46.520Z,16.36
2022-09-01T06:32:41.881Z,16.34
2022-09-01T06:33:37.414Z,16.39
2022-09-01T06:34:32.766Z,16.45
2022-09-01T06:35:28.193Z,16.54
2022-09-01T06:36:23.647Z,16.63
2022-09-01T06:37:19.072Z,16.69
2022-09-01T06:38:14.534Z,16.72
2022-09-01T06:39:09.995Z,16.74
2022-09-01T06:40:05.502Z,16.75
2022-09-01T06:41:00.943Z,16.76
2022-09-01T06:41:56.392Z,16.78
2022-09-01T06:42:51.816Z,16.79
2022-09-01T06:43:47.366Z,16.82
2022-09-01T06:44:42.622Z,16.90
2022-09-01T06:45:38.090Z,17.05
2022-09-01T06:46:33.764Z,17.14
2022-09-01T06:47:29.142Z,17.22
2022-09-01T06:48:24.591Z,17.21
2022-09-01T06:49:20.051Z,17.26
2022-09-01T06:51:14.986Z,17.36
2022-09-01T06:51:16.888Z,17.40
2022-09-01T06:52:07.443Z,17.41
2022-09-01T06:53:58.348Z,17.42
2022-09-01T06:54:52.804Z,17.37
2022-09-01T06:55:48.216Z,17.35
2022-09-01T06:56:45.002Z,17.41
2022-09-01T06:58:36.425Z,17.29
2022-09-01T06:59:34.042Z,17.27
2022-09-01T07:00:26.647Z,17.27
2022-09-01T07:01:20.783Z,17.23
2022-09-01T07:02:17.472Z,17.30
2022-09-01T07:03:11.640Z,17.27
2022-09-01T07:04:12.867Z,17.22
2022-09-01T07:05:03.819Z,17.10
2022-09-01T07:06:01.365Z,17.03
2022-09-01T07:07:53.356Z,17.04
2022-09-01T07:08:05.825Z,17.01
2022-09-01T07:09:50.078Z,16.93
2022-09-01T07:11:19.555Z,16.91
2022-09-01T07:13:22.800Z,16.95
2022-09-01T07:14:17.353Z,17.02
2022-09-01T07:18:00.209Z,17.02
2022-09-01T07:19:01.072Z,17.09
2022-09-01T07:19:51.250Z,17.08
2022-09-01T07:22:06.577Z,17.12
2022-09-01T07:23:02.999Z,17.06
2022-09-01T07:24:31.805Z,17.00
2022-09-01T07:25:22.869Z,17.03
2022-09-01T07:26:24.633Z,17.05
2022-09-01T07:27:14.892Z,17.03
2022-09-01T07:28:09.400Z,17.03
2022-09-01T07:29:06.079Z,17.03
2022-09-01T07:30:00.156Z,17.04
2022-09-01T07:30:55.656Z,17.00
2022-09-01T07:32:41.199Z,17.03
2022-09-01T07:32:48.027Z,17.02
2022-09-01T07:33:43.720Z,17.00
2022-09-01T07:34:38.830Z,17.04
2022-09-01T07:35:33.487Z,17.07
2022-09-01T07:36:29.379Z,17.14
2022-09-01T07:42:56.129Z,16.91
2022-09-01T07:43:53.456Z,17.14
2022-09-01T07:44:47.957Z,17.23
2022-09-01T07:45:59.497Z,17.31
2022-09-01T07:46:40.071Z,17.36
2022-09-01T07:49:02.449Z,17.31
2022-09-01T07:49:32.292Z,17.24
2022-09-01T07:50:39.824Z,17.21
2022-09-01T07:52:13.106Z,17.15
2022-09-01T07:53:07.616Z,17.13
2022-09-01T07:54:03.020Z,17.06
2022-09-01T07:54:58.651Z,17.03
2022-09-01T07:55:54.035Z,17.09
2022-09-01T07:56:49.551Z,17.17
2022-09-01T07:57:45.150Z,17.15
2022-09-01T07:58:40.700Z,17.05
2022-09-01T07:59:36.345Z,17.00
2022-09-01T08:00:31.817Z,17.01
2022-09-01T08:01:26.992Z,16.96
2022-09-01T08:02:22.491Z,16.95
2022-09-01T08:03:18.114Z,16.94
2022-09-01T08:04:13.404Z,17.00
2022-09-01T08:05:08.881Z,17.11
2022-09-01T08:06:04.408Z,17.46
2022-09-01T08:06:59.826Z,17.62
2022-09-01T08:07:55.384Z,17.74
2022-09-01T08:08:57.035Z,17.77
2022-09-01T08:09:47.355Z,17.70
2022-09-01T08:10:41.887Z,17.67
2022-09-01T08:12:01.199Z,17.63
2022-09-01T08:12:33.972Z,17.57
2022-09-01T08:13:28.458Z,17.57
2022-09-01T08:14:24.175Z,17.59
2022-09-01T08:16:17.878Z,17.35
2022-09-01T08:17:33.008Z,17.35
2022-09-01T08:18:06.839Z,17.34
2022-09-01T08:19:01.314Z,17.38
2022-09-01T08:19:56.661Z,17.40
2022-09-01T08:20:52.122Z,17.40
2022-09-01T08:21:47.543Z,17.44
2022-09-01T08:22:43.030Z,17.51
2022-09-01T08:23:38.823Z,17.60
2022-09-01T08:24:33.831Z,17.60
2022-09-01T08:25:29.233Z,17.61
2022-09-01T08:26:24.667Z,17.57
2022-09-01T08:27:19.911Z,17.55
2022-09-01T08:28:15.395Z,17.54
2022-09-01T08:29:10.935Z,17.58
2022-09-01T08:30:06.414Z,17.68
2022-09-01T08:31:01.987Z,17.80
2022-09-01T08:31:58.686Z,17.94
2022-09-01T08:32:52.763Z,18.03
2022-09-01T08:33:48.266Z,18.06
2022-09-01T08:34:43.889Z,18.12
2022-09-01T08:35:39.380Z,18.14
2022-09-01T08:36:35.571Z,18.12
2022-09-01T08:37:30.290Z,17.88
2022-09-01T08:38:25.719Z,17.71
2022-09-01T08:39:21.189Z,17.71
2022-09-01T08:40:16.755Z,17.77
2022-09-01T08:41:12.061Z,17.83
2022-09-01T08:42:08.655Z,17.90
2022-09-01T08:43:03.037Z,17.83
2022-09-01T08:43:58.436Z,17.75
2022-09-01T08:44:53.824Z,17.77
2022-09-01T08:45:49.223Z,17.86
2022-09-01T08:46:44.859Z,17.97
2022-09-01T08:48:04.608Z,18.08
2022-09-01T08:49:23.752Z,18.14
2022-09-01T08:49:42.908Z,18.17
2022-09-01T08:50:27.760Z,18.19
2022-09-01T08:51:22.215Z,18.16
2022-09-01T08:52:17.736Z,18.10
2022-09-01T08:53:13.136Z,18.06
2022-09-01T08:54:08.591Z,18.04
2022-09-01T08:55:04.200Z,18.08
2022-09-01T08:55:59.684Z,18.13
2022-09-01T08:56:55.156Z,18.19
2022-09-01T08:57:50.656Z,18.21
2022-09-01T08:58:46.092Z,18.27
2022-09-01T08:59:41.553Z,18.31
2022-09-01T09:00:37.177Z,18.29
2022-09-01T09:01:32.555Z,18.31
2022-09-01T09:02:28.081Z,18.35
2022-09-01T09:03:23.444Z,18.32
2022-09-01T09:04:18.903Z,18.33
2022-09-01T09:05:15.813Z,18.37
2022-09-01T09:06:09.802Z,18.37
2022-09-01T09:07:05.354Z,18.32
2022-09-01T09:08:08.034Z,18.28
2022-09-01T09:08:57.285Z,18.26
2022-09-01T09:09:54.193Z,18.23
2022-09-01T09:10:47.141Z,18.21
2022-09-01T09:11:42.788Z,18.22
2022-09-01T09:12:49.035Z,18.25
2022-09-01T09:13:34.826Z,18.29
2022-09-01T09:14:29.502Z,18.33
2022-09-01T09:15:24.985Z,18.41
2022-09-01T09:16:20.593Z,18.46
2022-09-01T09:17:16.100Z,18.50
2022-09-01T09:18:20.048Z,18.51
2022-09-01T09:19:07.999Z,18.48
2022-09-01T09:20:02.679Z,18.46
2022-09-01T09:20:58.157Z,18.46
2022-09-01T09:21:54.150Z,18.41
2022-09-01T09:22:49.189Z,18.39
2022-09-01T09:23:44.794Z,18.33
2022-09-01T09:24:40.420Z,18.21
2022-09-01T09:25:35.775Z,18.13
2022-09-01T09:26:42.174Z,18.12
2022-09-01T09:27:27.726Z,18.16
2022-09-01T09:28:22.398Z,18.21
2022-09-01T09:29:17.897Z,18.26
2022-09-01T09:30:13.509Z,18.26
2022-09-01T09:31:09.046Z,18.19
2022-09-01T09:32:04.549Z,18.12
2022-09-01T09:33:30.805Z,18.16
2022-09-01T09:33:56.870Z,18.17
2022-09-01T09:34:51.193Z,18.19
2022-09-01T09:35:46.688Z,18.24
2022-09-01T09:36:42.103Z,18.40
2022-09-01T09:37:37.514Z,18.53
2022-09-01T09:38:33.775Z,18.59
2022-09-01T09:39:29.524Z,18.59
2022-09-01T09:40:25.356Z,18.51
2022-09-01T09:41:25.756Z,18.44
2022-09-01T09:42:16.270Z,18.45
2022-09-01T09:43:10.682Z,18.50
2022-09-01T09:44:06.210Z,18.50
2022-09-01T09:45:01.852Z,18.54
2022-09-01T09:45:58.588Z,18.56
2022-09-01T09:46:52.939Z,18.58
2022-09-01T09:47:48.522Z,18.63
2022-09-01T09:48:44.053Z,18.76
2022-09-01T09:49:44.281Z,18.85
2022-09-01T09:50:35.907Z,18.83
2022-09-01T09:51:30.454Z,18.86
2022-09-01T09:52:25.990Z,18.92
2022-09-01T09:53:21.499Z,19.08
2022-09-01T09:54:16.891Z,19.34
2022-09-01T09:55:12.431Z,19.50
2022-09-01T09:56:07.685Z,19.54
2022-09-01T09:57:04.754Z,19.64
2022-09-01T09:57:58.668Z,19.63
2022-09-01T09:58:54.187Z,19.62
2022-09-01T10:00:04.840Z,19.47
2022-09-01T10:00:46.251Z,19.64
2022-09-01T10:01:40.705Z,19.76
2022-09-01T10:02:36.207Z,19.58
2022-09-01T10:03:31.628Z,19.50
2022-09-01T10:04:27.073Z,19.58
2022-09-01T10:05:22.524Z,19.68
2022-09-01T10:06:18.069Z,19.43
2022-09-01T10:07:13.606Z,19.29
2022-09-01T10:08:09.046Z,19.31
2022-09-01T10:09:04.656Z,19.36
2022-09-01T10:10:00.140Z,19.32
2022-09-01T10:10:58.497Z,19.27
2022-09-01T10:11:50.947Z,19.31
2022-09-01T10:12:46.413Z,19.28
2022-09-01T10:13:42.030Z,19.29
2022-09-01T10:14:52.096Z,19.27
2022-09-01T10:15:33.779Z,19.19
2022-09-01T10:16:28.191Z,19.08
2022-09-01T10:17:24.617Z,19.02
2022-09-01T10:18:21.057Z,19.00
2022-09-01T10:19:16.348Z,19.06
2022-09-01T10:20:11.453Z,19.12
2022-09-01T10:21:05.842Z,19.21
2022-09-01T10:22:01.371Z,19.35
2022-09-01T10:22:56.761Z,19.36
2022-09-01T10:23:52.145Z,19.34
2022-09-01T10:24:50.542Z,19.41
2022-09-01T10:25:43.231Z,19.56
2022-09-01T10:26:38.860Z,19.71
2022-09-01T10:27:34.312Z,19.69
2022-09-01T10:28:29.830Z,19.70
2022-09-01T10:29:25.431Z,19.68
2022-09-01T10:30:20.923Z,19.61
2022-09-01T10:31:16.438Z,19.44
2022-09-01T10:32:31.452Z,19.29
2022-09-01T10:33:19.225Z,19.18
2022-09-01T10:34:05.451Z,19.10
2022-09-01T10:35:02.953Z,19.10
2022-09-01T10:35:53.927Z,19.02
2022-09-01T10:36:54.909Z,19.00
2022-09-01T10:37:45.987Z,18.97
2022-09-01T10:38:40.390Z,18.90
2022-09-01T10:39:40.870Z,18.86
2022-09-01T10:40:32.376Z,18.88
2022-09-01T10:41:26.997Z,18.97
2022-09-01T10:42:22.516Z,19.08
2022-09-01T10:43:18.030Z,19.14
2022-09-01T10:44:13.437Z,19.21
2022-09-01T10:45:08.824Z,19.70
2022-09-01T10:46:05.834Z,19.76
2022-09-01T10:47:02.056Z,19.88
2022-09-01T10:47:55.898Z,19.98
2022-09-01T10:48:55.318Z,20.16
2022-09-01T10:49:47.837Z,20.46
2022-09-01T10:50:42.384Z,20.63
2022-09-01T10:51:38.805Z,20.92
2022-09-01T10:52:33.123Z,21.12
2022-09-01T10:53:28.686Z,21.60
2022-09-01T10:54:24.140Z,21.77
2022-09-01T10:55:24.569Z,21.51
2022-09-01T10:56:28.151Z,20.95
2022-09-01T10:57:12.275Z,20.57
2022-09-01T10:59:30.112Z,20.39
2022-09-01T10:59:58.136Z,20.16
2022-09-01T11:01:49.859Z,20.21
2022-09-01T11:02:46.871Z,20.20
2022-09-01T11:03:42.006Z,20.18
2022-09-01T11:04:35.561Z,20.06
2022-09-01T11:05:33.246Z,19.98
2022-09-01T11:06:33.191Z,19.88
2022-09-01T11:07:49.556Z,19.62
2022-09-01T11:08:17.434Z,19.54
2022-09-01T11:09:12.036Z,19.52
2022-09-01T11:10:11.341Z,19.59
2022-09-01T11:11:02.945Z,19.70
2022-09-01T11:11:58.300Z,19.72
2022-09-01T11:12:53.731Z,19.86
2022-09-01T11:13:50.134Z,19.83
2022-09-01T11:14:44.670Z,19.82
2022-09-01T11:15:40.118Z,19.85
2022-09-01T11:16:50.844Z,19.85
2022-09-01T11:17:32.282Z,19.85
2022-09-01T11:18:27.387Z,19.86
2022-09-01T11:19:22.164Z,19.89
2022-09-01T11:20:18.153Z,20.07
2022-09-01T11:21:13.280Z,20.17
2022-09-01T11:22:08.751Z,20.22
2022-09-01T11:23:04.250Z,20.29
2022-09-01T11:23:59.703Z,20.38
2022-09-01T11:25:00.322Z,20.37
2022-09-01T11:26:47.205Z,20.25
2022-09-01T11:27:41.619Z,20.16
2022-09-01T11:28:37.267Z,20.06
2022-09-01T11:29:32.768Z,20.18
2022-09-01T11:30:28.297Z,20.33
2022-09-01T11:31:23.758Z,20.45
2022-09-01T11:32:19.152Z,20.57
2022-09-01T11:33:14.602Z,20.72
2022-09-01T11:34:10.074Z,20.74
2022-09-01T11:35:05.475Z,20.75
2022-09-01T11:36:00.866Z,21.03
2022-09-01T11:36:56.404Z,21.29
2022-09-01T11:37:52.026Z,21.41
2022-09-01T11:38:47.455Z,21.35
2022-09-01T11:39:42.871Z,21.50
2022-09-01T11:40:38.442Z,21.67
2022-09-01T11:41:33.849Z,21.79
2022-09-01T11:42:29.211Z,22.01
2022-09-01T11:43:24.602Z,22.25
2022-09-01T11:44:20.120Z,22.31
2022-09-01T11:45:20.814Z,22.56
2022-09-01T11:46:12.219Z,22.75
2022-09-01T11:47:09.572Z,22.87
2022-09-01T11:48:03.257Z,22.65
2022-09-01T11:48:57.683Z,22.52
2022-09-01T11:49:53.221Z,22.75
2022-09-01T11:50:48.873Z,22.77
2022-09-01T11:51:44.283Z,22.69
2022-09-01T11:52:39.629Z,22.92
2022-09-01T11:53:35.154Z,23.03
2022-09-01T11:54:30.647Z,23.23
2022-09-01T11:55:26.299Z,22.95
2022-09-01T11:56:21.894Z,22.55
2022-09-01T11:57:17.365Z,22.20
2022-09-01T11:58:17.644Z,21.93
2022-09-01T11:59:09.494Z,22.12
2022-09-01T12:00:03.879Z,21.96
2022-09-01T12:00:59.332Z,21.79
2022-09-01T12:01:55.043Z,21.56
2022-09-01T12:02:50.643Z,21.33
2022-09-01T12:03:46.020Z,21.01
2022-09-01T12:04:41.478Z,20.88
2022-09-01T12:05:36.958Z,20.69
2022-09-01T12:06:32.445Z,20.65
2022-09-01T12:07:28.162Z,20.67
2022-09-01T12:08:24.385Z,20.68
2022-09-01T12:09:18.902Z,20.62
2022-09-01T12:10:14.497Z,20.68
2022-09-01T12:11:09.940Z,20.65
2022-09-01T12:12:05.474Z,20.74
2022-09-01T12:13:01.109Z,20.77
2022-09-01T12:13:56.623Z,20.74
2022-09-01T12:15:05.193Z,21.09